Time;durP1;ratioP1;P1;durP2;ratioP2;P2;SDS_P1;SDS_P2;PMS_P1;PMS_P2;Temp;Humidity;BMP_temperature;BMP_pressure;BME280_temperature;BME280_humidity;BME280_pressure;Samples;Min_cycle;Max_cycle;Signal;HPM_P1;HPM_P2
2019/11/03 00:02:17;;;;;;;3.9;2.8;;;;;;;;;;;;;
2019/11/03 00:04:43;;;;;;;5.3;2.5;;;;;;;;;;;;;
2019/11/03 00:07:17;;;;;;;4.4;2.5;;;;;;;;;;;;;
2019/11/03 00:09:47;;;;;;;5.3;3.4;;;;;;;;;;;;;
2019/11/03 00:12:17;;;;;;;6;4.1;;;;;;;;;;;;;
2019/11/03 00:14:43;;;;;;;5.9;4.1;;;;;;;;;;;;;
2019/11/03 00:17:08;;;;;;;6.1;4;;;;;;;;;;;;;
2019/11/03 00:19:32;;;;;;;6.3;3.2;;;;;;;;;;;;;
2019/11/03 00:22:00;;;;;;;6.7;2.9;;;;;;;;;;;;;
2019/11/03 00:24:27;;;;;;;5.5;3;;;;;;;;;;;;;
2019/11/03 00:26:51;;;;;;;5.5;3.7;;;;;;;;;;;;;
2019/11/03 00:29:22;;;;;;;5.4;3.4;;;;;;;;;;;;;
2019/11/03 00:31:46;;;;;;;5;3.5;;;;;;;;;;;;;
2019/11/03 00:34:06;;;;;;;5.3;3.4;;;;;;;;;;;;;
2019/11/03 00:36:31;;;;;;;6.3;3.2;;;;;;;;;;;;;
2019/11/03 00:38:56;;;;;;;4.2;2.6;;;;;;;;;;;;;
2019/11/03 00:41:23;;;;;;;6.1;3.2;;;;;;;;;;;;;
2019/11/03 00:43:45;;;;;;;6.5;3.7;;;;;;;;;;;;;
2019/11/03 00:46:14;;;;;;;6.7;3.8;;;;;;;;;;;;;
2019/11/03 00:51:06;;;;;;;10.5;4.9;;;;;;;;;;;;;
2019/11/03 00:53:42;;;;;;;13.3;5.5;;;;;;;;;;;;;
2019/11/03 00:56:17;;;;;;;10.6;5;;;;;;;;;;;;;
2019/11/03 00:59:19;;;;;;;7.4;3.5;;;;;;;;;;;;;
2019/11/03 01:01:49;;;;;;;7.3;3.5;;;;;;;;;;;;;
2019/11/03 01:04:04;;;;;;;8.5;3.6;;;;;;;;;;;;;
2019/11/03 01:06:29;;;;;;;7.8;3.5;;;;;;;;;;;;;
2019/11/03 01:08:56;;;;;;;7.3;3.1;;;;;;;;;;;;;
2019/11/03 01:11:22;;;;;;;6.4;2.9;;;;;;;;;;;;;
2019/11/03 01:13:47;;;;;;;7.1;3;;;;;;;;;;;;;
2019/11/03 01:16:30;;;;;;;5.3;2.9;;;;;;;;;;;;;
2019/11/03 01:18:54;;;;;;;5;2.7;;;;;;;;;;;;;
2019/11/03 01:21:16;;;;;;;5.9;2.9;;;;;;;;;;;;;
2019/11/03 01:23:43;;;;;;;4.8;2.7;;;;;;;;;;;;;
2019/11/03 01:26:06;;;;;;;4.1;2.6;;;;;;;;;;;;;
2019/11/03 01:28:34;;;;;;;4.4;2.4;;;;;;;;;;;;;
2019/11/03 01:31:04;;;;;;;4;2.5;;;;;;;;;;;;;
2019/11/03 01:33:36;;;;;;;4.7;2.3;;;;;;;;;;;;;
2019/11/03 01:35:58;;;;;;;4.1;2.2;;;;;;;;;;;;;
2019/11/03 01:38:31;;;;;;;3.7;2.1;;;;;;;;;;;;;
2019/11/03 01:40:54;;;;;;;2;1.7;;;;;;;;;;;;;
2019/11/03 01:43:16;;;;;;;2.4;1.7;;;;;;;;;;;;;
2019/11/03 01:45:47;;;;;;;2.2;1.6;;;;;;;;;;;;;
2019/11/03 01:48:11;;;;;;;2.8;1.6;;;;;;;;;;;;;
2019/11/03 01:50:35;;;;;;;1.9;1.3;;;;;;;;;;;;;
2019/11/03 01:52:58;;;;;;;5;1.5;;;;;;;;;;;;;
2019/11/03 01:55:27;;;;;;;2.9;1.5;;;;;;;;;;;;;
2019/11/03 01:57:52;;;;;;;2.4;1.2;;;;;;;;;;;;;
2019/11/03 02:00:26;;;;;;;1.8;1.2;;;;;;;;;;;;;
2019/11/03 02:02:41;;;;;;;3.3;1.6;;;;;;;;;;;;;
2019/11/03 02:05:02;;;;;;;1.8;1.2;;;;;;;;;;;;;
2019/11/03 02:07:35;;;;;;;3.6;1.6;;;;;;;;;;;;;
2019/11/03 02:09:54;;;;;;;2.4;1.2;;;;;;;;;;;;;
2019/11/03 02:12:19;;;;;;;1.7;1.3;;;;;;;;;;;;;
2019/11/03 02:14:52;;;;;;;1.8;1.2;;;;;;;;;;;;;
2019/11/03 02:17:15;;;;;;;2.1;1;;;;;;;;;;;;;
2019/11/03 02:19:36;;;;;;;2.6;1.1;;;;;;;;;;;;;
2019/11/03 02:22:07;;;;;;;1.7;1.1;;;;;;;;;;;;;
2019/11/03 02:24:29;;;;;;;4;1.2;;;;;;;;;;;;;
2019/11/03 02:27:18;;;;;;;3.5;1.3;;;;;;;;;;;;;
2019/11/03 02:29:45;;;;;;;1.8;1.2;;;;;;;;;;;;;
2019/11/03 02:32:10;;;;;;;2.8;1.1;;;;;;;;;;;;;
2019/11/03 02:34:38;;;;;;;2.1;1.3;;;;;;;;;;;;;
2019/11/03 02:37:17;;;;;;;2.3;1.3;;;;;;;;;;;;;
2019/11/03 02:39:30;;;;;;;3.2;1.3;;;;;;;;;;;;;
2019/11/03 02:42:24;;;;;;;2.3;1.1;;;;;;;;;;;;;
2019/11/03 02:44:54;;;;;;;3.1;1.4;;;;;;;;;;;;;
2019/11/03 02:47:17;;;;;;;2.3;1.3;;;;;;;;;;;;;
2019/11/03 02:49:42;;;;;;;2.2;1.2;;;;;;;;;;;;;
2019/11/03 02:52:21;;;;;;;1.8;1.5;;;;;;;;;;;;;
2019/11/03 02:54:48;;;;;;;3.1;1.3;;;;;;;;;;;;;
2019/11/03 02:57:13;;;;;;;4.4;1.3;;;;;;;;;;;;;
2019/11/03 02:59:45;;;;;;;3.4;1.4;;;;;;;;;;;;;
2019/11/03 03:02:07;;;;;;;1.6;1.3;;;;;;;;;;;;;
2019/11/03 03:04:28;;;;;;;4.5;1.2;;;;;;;;;;;;;
2019/11/03 03:06:57;;;;;;;3.3;1.4;;;;;;;;;;;;;
2019/11/03 03:09:25;;;;;;;1.9;1.3;;;;;;;;;;;;;
2019/11/03 03:11:52;;;;;;;1.8;1.3;;;;;;;;;;;;;
2019/11/03 03:14:22;;;;;;;3.3;1.3;;;;;;;;;;;;;
2019/11/03 03:16:45;;;;;;;2.5;1.5;;;;;;;;;;;;;
2019/11/03 03:19:16;;;;;;;3.7;1.4;;;;;;;;;;;;;
2019/11/03 03:21:35;;;;;;;2.6;1.2;;;;;;;;;;;;;
2019/11/03 03:24:03;;;;;;;1.6;1.3;;;;;;;;;;;;;
2019/11/03 03:26:26;;;;;;;2.7;1.4;;;;;;;;;;;;;
2019/11/03 03:28:55;;;;;;;3.1;1.6;;;;;;;;;;;;;
2019/11/03 03:31:17;;;;;;;3.4;1.4;;;;;;;;;;;;;
2019/11/03 03:33:44;;;;;;;1.9;1.5;;;;;;;;;;;;;
2019/11/03 03:36:20;;;;;;;2.7;1.4;;;;;;;;;;;;;
2019/11/03 03:38:37;;;;;;;2.8;1.4;;;;;;;;;;;;;
2019/11/03 03:41:04;;;;;;;2.8;1.2;;;;;;;;;;;;;
2019/11/03 03:43:27;;;;;;;1.4;1.2;;;;;;;;;;;;;
2019/11/03 03:45:54;;;;;;;1.8;1.2;;;;;;;;;;;;;
2019/11/03 03:48:22;;;;;;;2.7;1.2;;;;;;;;;;;;;
2019/11/03 03:50:50;;;;;;;3.2;1.2;;;;;;;;;;;;;
2019/11/03 03:53:24;;;;;;;1.5;1.2;;;;;;;;;;;;;
2019/11/03 03:55:41;;;;;;;3.7;1.3;;;;;;;;;;;;;
2019/11/03 03:58:36;;;;;;;1.5;1.2;;;;;;;;;;;;;
2019/11/03 04:02:37;;;;;;;2.3;1.1;;;;;;;9.2;82.88574;916.4924;;;;
2019/11/03 04:05:21;;;;;;;2.6;1.3;;;;;;;9.14;83.46582;916.5159;;;;
2019/11/03 04:07:56;;;;;;;1.6;1.2;;;;;;;9.15;83.10449;916.4101;;;;
2019/11/03 04:10:15;;;;;;;2.2;1.5;;;;;;;9.12;83.33691;916.2519;;;;
2019/11/03 04:12:42;;;;;;;2.9;1.4;;;;;;;9.12;83.39355;916.0797;;;;
2019/11/03 04:15:24;;;;;;;1.7;1.2;;;;;;;9.03;83.62793;915.9299;;;;
2019/11/03 04:17:56;;;;;;;2.5;1.3;;;;;;;9;83.75781;915.9564;;;;
2019/11/03 04:20:36;;;;;;;2.4;1.3;;;;;;;8.93;83.73242;915.908;;;;
2019/11/03 04:22:42;;;;;;;2.7;1.4;;;;;;;8.93;83.81152;915.9515;;;;
2019/11/03 04:25:07;;;;;;;2.6;1.4;;;;;;;8.92;83.87988;915.8834;;;;
2019/11/03 04:27:37;;;;;;;3.9;2.1;;;;;;;8.9;84.0459;915.7618;;;;
2019/11/03 04:30:20;;;;;;;2;1.8;;;;;;;8.93;83.57324;915.7548;;;;
2019/11/03 04:32:57;;;;;;;2.6;1.8;;;;;;;8.98;83.61719;915.745;;;;
2019/11/03 04:35:21;;;;;;;2.6;1.6;;;;;;;8.98;83.24219;915.7949;;;;
2019/11/03 04:38:38;;;;;;;1.9;1.5;;;;;;;8.94;83.5752;915.7952;;;;
2019/11/03 04:41:09;;;;;;;1.6;1.4;;;;;;;8.93;83.50684;915.8959;;;;
2019/11/03 04:43:43;;;;;;;2.8;1.5;;;;;;;8.87;83.88086;915.9196;;;;
2019/11/03 04:46:11;;;;;;;3.1;1.9;;;;;;;8.84;84.29492;915.8019;;;;
2019/11/03 04:54:14;;;;;;;2.4;1.8;;;;;;;8.95;83.1123;915.5574;;;;
2019/11/03 04:59:21;;;;;;;2.5;1.5;;;;;;;8.93;83.58398;915.5048;;;;
2019/11/03 05:01:45;;;;;;;1.6;1.3;;;;;;;8.93;83.63184;915.5182;;;;
2019/11/03 05:04:18;;;;;;;3.1;1.4;;;;;;;8.86;83.97949;915.515;;;;
2019/11/03 05:06:42;;;;;;;2.2;1.5;;;;;;;8.91;83.9541;915.5244;;;;
2019/11/03 05:09:09;;;;;;;2.1;1.2;;;;;;;8.96;83.68262;915.5787;;;;
2019/11/03 05:11:43;;;;;;;3.9;1.1;;;;;;;8.74;84.51563;915.5386;;;;
2019/11/03 05:14:30;;;;;;;1.6;1.1;;;;;;;8.79;84.88672;915.4623;;;;
2019/11/03 05:16:53;;;;;;;1.5;1;;;;;;;8.91;84.23926;915.4434;;;;
2019/11/03 05:19:23;;;;;;;2.2;1.5;;;;;;;8.98;84.55078;915.4116;;;;
2019/11/03 05:21:50;;;;;;;2.1;1.3;;;;;;;9.06;83.42676;915.3889;;;;
2019/11/03 05:24:52;;;;;;;2.3;1.5;;;;;;;9.05;83.1875;915.2905;;;;
2019/11/03 05:29:11;;;;;;;2.8;2.1;;;;;;;9.08;83.21582;915.1287;;;;
2019/11/03 05:34:48;;;;;;;7;4.2;;;;;;;9.02;83.50098;915.2103;;;;
2019/11/03 05:36:50;;;;;;;4.6;2.7;;;;;;;9.01;83.29297;915.1158;;;;
2019/11/03 05:39:19;;;;;;;4.4;2.4;;;;;;;9.01;82.91797;915.1269;;;;
2019/11/03 05:41:49;;;;;;;3;2.4;;;;;;;9.03;82.46777;915.0647;;;;
2019/11/03 05:44:15;;;;;;;3.6;2.5;;;;;;;9.03;82.37695;915.0458;;;;
2019/11/03 05:47:10;;;;;;;3.8;2.4;;;;;;;8.97;82.92188;914.9835;;;;
2019/11/03 05:49:20;;;;;;;2.9;1.8;;;;;;;8.95;83.41895;914.9551;;;;
2019/11/03 05:52:14;;;;;;;2.6;2;;;;;;;8.95;82.98535;914.9109;;;;
2019/11/03 05:54:46;;;;;;;3.7;2;;;;;;;8.9;83.08984;914.8928;;;;
2019/11/03 05:57:20;;;;;;;5.2;2.2;;;;;;;8.95;82.83887;914.9306;;;;
2019/11/03 05:59:44;;;;;;;5.5;1.8;;;;;;;8.93;83.06152;914.9224;;;;
2019/11/03 06:04:59;;;;;;;1.8;1.5;;;;;;;8.94;82.7334;914.8007;;;;
2019/11/03 06:07:11;;;;;;;4.7;1.9;;;;;;;8.92;82.72949;914.7972;;;;
2019/11/03 06:09:36;;;;;;;3.6;1.6;;;;;;;8.94;82.3916;914.8531;;;;
2019/11/03 06:12:17;;;;;;;3.6;1.6;;;;;;;8.94;82.54102;914.8649;;;;
2019/11/03 06:14:50;;;;;;;2.6;1.6;;;;;;;8.87;83.07324;914.8214;;;;
2019/11/03 06:17:14;;;;;;;2.2;1.5;;;;;;;8.8;83.65039;914.7028;;;;
2019/11/03 06:19:46;;;;;;;2.6;1.5;;;;;;;8.8;83.63965;914.6544;;;;
2019/11/03 06:22:11;;;;;;;3.2;1.5;;;;;;;8.87;83.05078;914.6887;;;;
2019/11/03 06:24:38;;;;;;;3.2;1.7;;;;;;;8.97;82.75098;914.7238;;;;
2019/11/03 06:27:07;;;;;;;3.3;1.7;;;;;;;8.96;82.96582;914.6423;;;;
2019/11/03 06:29:39;;;;;;;3.8;1.7;;;;;;;9.04;82.83301;914.5692;;;;
2019/11/03 06:32:08;;;;;;;3.6;2.1;;;;;;;9.11;82.91406;914.5715;;;;
2019/11/03 06:34:33;;;;;;;4;1.7;;;;;;;9.21;82.53613;914.6362;;;;
2019/11/03 06:36:57;;;;;;;3.6;2.1;;;;;;;9.19;83.25977;914.5888;;;;
2019/11/03 06:39:30;;;;;;;5;2.9;;;;;;;9.26;82.52246;914.5851;;;;
2019/11/03 06:44:22;;;;;;;3.5;2.1;;;;;;;9.27;82.85449;914.4609;;;;
2019/11/03 06:47:11;;;;;;;6.1;4;;;;;;;9.37;83.02246;914.5346;;;;
2019/11/03 06:49:44;;;;;;;6.1;3.9;;;;;;;9.36;83.38379;914.6287;;;;
2019/11/03 06:52:14;;;;;;;9.3;3.6;;;;;;;9.45;82.71777;914.668;;;;
2019/11/03 06:54:40;;;;;;;8.9;4.4;;;;;;;9.52;82.7998;914.5869;;;;
2019/11/03 06:57:09;;;;;;;5.7;4.1;;;;;;;9.54;82.79199;914.6643;;;;
2019/11/03 07:00:27;;;;;;;6.3;4;;;;;;;9.54;82.83789;914.6379;;;;
2019/11/03 07:02:47;;;;;;;5.9;2.8;;;;;;;9.49;82.69043;914.779;;;;
2019/11/03 07:05:28;;;;;;;2.3;1.6;;;;;;;9.26;84.09277;914.7549;;;;
2019/11/03 07:08:01;;;;;;;2.5;1.5;;;;;;;9.49;83.31738;914.7561;;;;
2019/11/03 07:10:23;;;;;;;2.5;1.9;;;;;;;9.65;83.82715;914.7419;;;;
2019/11/03 07:13:06;;;;;;;5.7;4.1;;;;;;;9.77;83.17773;914.7564;;;;
2019/11/03 07:15:29;;;;;;;4.3;3.3;;;;;;;9.87;82.11523;914.7937;;;;
2019/11/03 07:18:15;;;;;;;6.6;4.1;;;;;;;9.93;81.86328;914.6945;;;;
2019/11/03 07:20:47;;;;;;;5.3;3.7;;;;;;;10.01;81.60547;914.7719;;;;
2019/11/03 07:23:21;;;;;;;4.9;2.7;;;;;;;10.13;80.37207;914.7386;;;;
2019/11/03 07:25:46;;;;;;;4.2;2.3;;;;;;;10.25;80.06348;914.7942;;;;
2019/11/03 07:28:12;;;;;;;5.4;2.7;;;;;;;10.42;80.54199;914.7609;;;;
2019/11/03 07:30:40;;;;;;;4.4;2.5;;;;;;;10.56;79.85938;914.815;;;;
2019/11/03 07:33:17;;;;;;;4.6;2.5;;;;;;;10.64;80.06836;914.7541;;;;
2019/11/03 07:35:44;;;;;;;2.7;2;;;;;;;10.83;78.7666;914.7631;;;;
2019/11/03 07:38:16;;;;;;;2.8;2;;;;;;;11.01;78.21484;914.6704;;;;
2019/11/03 07:40:40;;;;;;;5.6;1.9;;;;;;;11.11;78.22363;914.7058;;;;
2019/11/03 07:45:54;;;;;;;2.5;1.9;;;;;;;11.26;78.27246;914.5691;;;;
2019/11/03 07:48:25;;;;;;;4.1;2.2;;;;;;;11.41;77.55762;914.5844;;;;
2019/11/03 07:51:11;;;;;;;3.1;2.6;;;;;;;11.46;77.05078;914.5645;;;;
2019/11/03 07:53:35;;;;;;;5.9;3.8;;;;;;;11.39;77.60059;914.5815;;;;
2019/11/03 07:56:08;;;;;;;5.3;3.9;;;;;;;11.34;77.86328;914.4495;;;;
2019/11/03 07:58:36;;;;;;;7;4;;;;;;;11.32;78.30664;914.5084;;;;
2019/11/03 08:01:13;;;;;;;4.3;3.3;;;;;;;11.39;78.68555;914.4559;;;;
2019/11/03 08:03:38;;;;;;;3.9;2.8;;;;;;;11.48;77.88965;914.379;;;;
2019/11/03 08:07:23;;;;;;;3.9;3.2;;;;;;;11.64;77.27637;914.3128;;;;
2019/11/03 08:09:55;;;;;;;3.3;2.5;;;;;;;11.76;77.41211;914.1367;;;;
2019/11/03 08:12:22;;;;;;;4.5;2.6;;;;;;;11.79;77.73926;914.1462;;;;
2019/11/03 08:15:02;;;;;;;3.2;2;;;;;;;11.84;77.23145;914.1544;;;;
2019/11/03 08:17:55;;;;;;;4.4;2.2;;;;;;;11.9;77.68945;914.1021;;;;
2019/11/03 08:19:57;;;;;;;8;3.8;;;;;;;11.99;77.3623;914.1722;;;;
2019/11/03 08:22:30;;;;;;;8.8;5.5;;;;;;;12.02;77.27539;914.1858;;;;
2019/11/03 08:25:35;;;;;;;6.6;3.5;;;;;;;12.06;76.70996;914.2084;;;;
2019/11/03 08:27:59;;;;;;;4.4;2.5;;;;;;;12.13;77.07813;914.2098;;;;
2019/11/03 08:30:15;;;;;;;5.5;2.7;;;;;;;12.21;76.89746;914.2064;;;;
2019/11/03 08:32:46;;;;;;;6.7;3.7;;;;;;;12.28;77.0127;914.2815;;;;
2019/11/03 08:35:44;;;;;;;6.1;2.6;;;;;;;12.31;77.04199;914.2698;;;;
2019/11/03 08:37:49;;;;;;;6.7;4.5;;;;;;;12.4;76.34473;914.1439;;;;
2019/11/03 08:41:11;;;;;;;6.5;4.2;;;;;;;12.48;76.68066;914.2051;;;;
2019/11/03 08:43:26;;;;;;;6.7;3.4;;;;;;;12.51;76.10156;914.1512;;;;
2019/11/03 08:45:59;;;;;;;6.2;3.9;;;;;;;12.52;76.40137;914.0903;;;;
2019/11/03 08:48:16;;;;;;;6.5;3.9;;;;;;;12.59;76.36719;914.1619;;;;
2019/11/03 08:50:43;;;;;;;5.6;3.7;;;;;;;12.63;76.67285;914.1071;;;;
2019/11/03 08:53:17;;;;;;;8.7;3.8;;;;;;;12.69;76.34961;914.0539;;;;
2019/11/03 08:55:58;;;;;;;5.7;4.1;;;;;;;12.72;75.88574;914.1023;;;;
2019/11/03 08:58:34;;;;;;;6.5;4;;;;;;;12.76;76.31836;914.2378;;;;
2019/11/03 09:01:00;;;;;;;9.3;4.6;;;;;;;12.74;76.17773;914.4286;;;;
2019/11/03 09:04:01;;;;;;;5.4;4.1;;;;;;;12.74;75.30371;914.3466;;;;
2019/11/03 09:06:31;;;;;;;6.3;5.3;;;;;;;12.65;75.27637;914.3794;;;;
2019/11/03 09:08:55;;;;;;;4.3;2.4;;;;;;;12.5;76.11133;914.3471;;;;
2019/11/03 09:11:43;;;;;;;4.1;2.2;;;;;;;12.47;75.89941;914.3524;;;;
2019/11/03 09:14:09;;;;;;;5.6;3.3;;;;;;;12.38;77.4082;914.1797;;;;
2019/11/03 09:16:32;;;;;;;3.4;2.5;;;;;;;12.39;77.65234;914.0014;;;;
2019/11/03 09:19:02;;;;;;;4.4;3.1;;;;;;;12.37;78.38086;914.1467;;;;
2019/11/03 09:21:30;;;;;;;3.8;3.1;;;;;;;12.43;78.31445;913.9297;;;;
2019/11/03 09:24:14;;;;;;;4.8;3.7;;;;;;;12.55;77.70313;913.9272;;;;
2019/11/03 09:26:45;;;;;;;5.7;4.3;;;;;;;12.66;77.79102;914.0344;;;;
2019/11/03 09:29:10;;;;;;;11.4;5.5;;;;;;;12.65;77.69727;914.0297;;;;
2019/11/03 09:31:37;;;;;;;7.5;4.9;;;;;;;12.67;77.42578;913.9908;;;;
2019/11/03 09:34:14;;;;;;;6.6;5.4;;;;;;;12.66;77.45996;913.9191;;;;
2019/11/03 09:36:45;;;;;;;7;5.6;;;;;;;12.67;78.39063;913.8861;;;;
2019/11/03 09:39:18;;;;;;;6.9;4.7;;;;;;;12.73;78.66406;913.812;;;;
2019/11/03 09:41:44;;;;;;;6.4;4.5;;;;;;;12.77;78.61523;913.8439;;;;
2019/11/03 09:44:24;;;;;;;8.6;6.8;;;;;;;12.65;77.93848;913.8772;;;;
2019/11/03 09:46:39;;;;;;;7.8;6.5;;;;;;;12.58;79.02637;913.7792;;;;
2019/11/03 09:49:02;;;;;;;8.8;5.9;;;;;;;12.63;79.75977;913.7846;;;;
2019/11/03 09:54:19;;;;;;;9.8;5.8;;;;;;;12.61;79.56152;913.7092;;;;
2019/11/03 09:57:14;;;;;;;10;5.1;;;;;;;12.55;80.18066;913.682;;;;
2019/11/03 09:59:49;;;;;;;6.7;5.5;;;;;;;12.36;79.83594;913.6498;;;;
2019/11/03 10:02:20;;;;;;;6;4.4;;;;;;;12.43;79.41309;913.6434;;;;
2019/11/03 10:04:53;;;;;;;7.9;5.3;;;;;;;12.52;79.09766;913.5377;;;;
2019/11/03 10:07:15;;;;;;;6.9;5.2;;;;;;;12.64;79.85254;913.5416;;;;
2019/11/03 10:09:42;;;;;;;5.4;4.2;;;;;;;12.83;78.38379;913.4849;;;;
2019/11/03 10:12:17;;;;;;;3.1;2.4;;;;;;;12.82;78.15332;913.4672;;;;
2019/11/03 10:14:41;;;;;;;4.8;2.4;;;;;;;12.97;77.90527;913.3356;;;;
2019/11/03 10:17:12;;;;;;;3.7;1.9;;;;;;;13.09;77.8125;913.247;;;;
2019/11/03 10:19:39;;;;;;;2.9;2;;;;;;;13.27;78.23242;913.2814;;;;
2019/11/03 10:22:22;;;;;;;4.7;2.8;;;;;;;13.44;77.5293;913.233;;;;
2019/11/03 10:24:47;;;;;;;4.1;2.3;;;;;;;13.63;75.45898;913.1077;;;;
2019/11/03 10:27:32;;;;;;;3.9;2.5;;;;;;;13.76;76.22852;913.0478;;;;
2019/11/03 10:30:07;;;;;;;3.9;2.5;;;;;;;13.92;74.80664;913.0692;;;;
2019/11/03 10:35:18;;;;;;;3.2;2.1;;;;;;;14.16;73.0752;913.0048;;;;
2019/11/03 10:37:50;;;;;;;3.3;2.2;;;;;;;14.19;73.4834;912.9275;;;;
2019/11/03 10:40:24;;;;;;;2.7;2;;;;;;;14.28;72.04688;912.9476;;;;
2019/11/03 10:42:54;;;;;;;3.4;1.9;;;;;;;14.33;70.96094;912.8047;;;;
2019/11/03 10:45:19;;;;;;;2.6;1.8;;;;;;;14.35;71.72461;912.7731;;;;
2019/11/03 10:48:18;;;;;;;2.6;1.9;;;;;;;14.31;71.45313;912.6936;;;;
2019/11/03 10:50:47;;;;;;;3.1;1.8;;;;;;;14.45;71.14258;912.6547;;;;
2019/11/03 10:53:15;;;;;;;3.4;1.9;;;;;;;14.44;70.71484;912.5815;;;;
2019/11/03 10:55:43;;;;;;;3.3;2;;;;;;;14.5;70.28711;912.5482;;;;
2019/11/03 10:58:10;;;;;;;2.8;1.8;;;;;;;14.56;69.37402;912.5215;;;;
2019/11/03 11:00:37;;;;;;;3.3;1.9;;;;;;;14.7;69.51074;912.5954;;;;
2019/11/03 11:03:19;;;;;;;3.4;2.3;;;;;;;14.69;68.86328;912.4966;;;;
2019/11/03 11:05:47;;;;;;;4.1;2.2;;;;;;;14.65;69.76855;912.4319;;;;
2019/11/03 11:08:19;;;;;;;3.8;2.2;;;;;;;14.66;68.17969;912.345;;;;
2019/11/03 11:10:49;;;;;;;3.7;2.2;;;;;;;14.63;68.29004;912.4233;;;;
2019/11/03 11:13:14;;;;;;;3.8;2.3;;;;;;;14.59;68.01953;912.3981;;;;
2019/11/03 11:15:44;;;;;;;3.9;2.4;;;;;;;14.64;69.4082;912.4052;;;;
2019/11/03 11:18:30;;;;;;;3.8;2.4;;;;;;;14.68;69.01367;912.2935;;;;
2019/11/03 11:20:55;;;;;;;3.8;2.2;;;;;;;14.71;67.38086;912.308;;;;
2019/11/03 11:23:31;;;;;;;3.6;2.2;;;;;;;14.63;67.47168;912.3289;;;;
2019/11/03 11:26:07;;;;;;;3.9;2.3;;;;;;;14.63;68.99316;912.283;;;;
2019/11/03 11:28:38;;;;;;;4.5;3.3;;;;;;;14.58;68.17773;912.1866;;;;
2019/11/03 11:31:15;;;;;;;6.4;2.7;;;;;;;14.45;69.35645;912.2073;;;;
2019/11/03 11:33:46;;;;;;;4.2;3.1;;;;;;;14.37;70.89746;912.1714;;;;
2019/11/03 11:36:18;;;;;;;5.1;2.9;;;;;;;14.36;70.60742;912.1206;;;;
2019/11/03 11:38:40;;;;;;;3.3;2.7;;;;;;;14.4;71.33105;912.0912;;;;
2019/11/03 11:41:12;;;;;;;6;2.9;;;;;;;14.45;70.76172;912.0506;;;;
2019/11/03 11:43:35;;;;;;;5.1;2.9;;;;;;;14.59;69.85059;912.0133;;;;
2019/11/03 11:46:11;;;;;;;7.4;4;;;;;;;14.59;70.83008;912.0179;;;;
2019/11/03 11:48:44;;;;;;;4.5;2.4;;;;;;;14.71;70.88574;911.9069;;;;
2019/11/03 11:51:21;;;;;;;3.7;2.7;;;;;;;14.82;68.66602;911.8847;;;;
2019/11/03 11:53:48;;;;;;;4.8;2.9;;;;;;;14.82;70.24414;911.7263;;;;
2019/11/03 11:56:21;;;;;;;6.4;2.6;;;;;;;14.93;68.68262;911.7144;;;;
2019/11/03 11:58:50;;;;;;;3.3;2.3;;;;;;;15.07;67.80469;911.6741;;;;
2019/11/03 12:01:18;;;;;;;4.5;2.3;;;;;;;15.16;67.63379;911.5774;;;;
2019/11/03 12:03:45;;;;;;;4.8;2.4;;;;;;;15.27;67.62891;911.6454;;;;
2019/11/03 12:06:14;;;;;;;3.3;2.3;;;;;;;15.31;67.10156;911.6238;;;;
2019/11/03 12:08:57;;;;;;;2.9;2.2;;;;;;;15.36;67.33008;911.5047;;;;
2019/11/03 12:11:25;;;;;;;2.8;2.1;;;;;;;15.5;65.78125;911.5105;;;;
2019/11/03 12:13:53;;;;;;;5;2.3;;;;;;;15.6;67.54004;911.5111;;;;
2019/11/03 12:16:17;;;;;;;6.5;2.2;;;;;;;15.61;66.66211;911.4788;;;;
2019/11/03 12:18:49;;;;;;;3.8;2.8;;;;;;;15.37;65.57715;911.4641;;;;
2019/11/03 12:21:20;;;;;;;3.3;2.3;;;;;;;15.32;66.25;911.4026;;;;
2019/11/03 12:23:45;;;;;;;3;2.1;;;;;;;15.36;67.49219;911.3964;;;;
2019/11/03 12:26:17;;;;;;;3.6;2.5;;;;;;;15.16;67.24121;911.3761;;;;
2019/11/03 12:28:51;;;;;;;2.1;1.7;;;;;;;15.16;67.27734;911.3102;;;;
2019/11/03 12:31:14;;;;;;;3.3;0.9;;;;;;;15.29;64.73438;911.3369;;;;
2019/11/03 12:33:41;;;;;;;2.6;1.4;;;;;;;15.32;65.66211;911.3911;;;;
2019/11/03 12:36:06;;;;;;;1.9;1.1;;;;;;;15.39;65.70703;911.2994;;;;
2019/11/03 12:38:39;;;;;;;1.6;1.3;;;;;;;15.41;65.07324;911.2458;;;;
2019/11/03 12:41:07;;;;;;;2.2;1.2;;;;;;;15.29;65.3457;911.274;;;;
2019/11/03 12:43:40;;;;;;;2;1.4;;;;;;;15.19;65.71191;911.2447;;;;
2019/11/03 12:46:00;;;;;;;5.4;1.6;;;;;;;15.14;65.99414;911.2288;;;;
2019/11/03 12:48:28;;;;;;;2.2;1.5;;;;;;;15.08;66.19141;911.1581;;;;
2019/11/03 12:50:58;;;;;;;2.3;1.4;;;;;;;14.99;66.11914;911.1266;;;;
2019/11/03 12:53:24;;;;;;;1.8;1.4;;;;;;;14.98;67.20313;911.1052;;;;
2019/11/03 12:55:55;;;;;;;1.6;1.2;;;;;;;14.98;67.25977;911.1438;;;;
2019/11/03 12:58:25;;;;;;;1.8;1.3;;;;;;;14.94;66.9082;911.1859;;;;
2019/11/03 13:00:49;;;;;;;2.2;1.4;;;;;;;14.62;67.85059;911.1214;;;;
2019/11/03 13:03:16;;;;;;;2.2;1.4;;;;;;;14.37;69.95313;911.1596;;;;
2019/11/03 13:05:46;;;;;;;3.3;1.5;;;;;;;14.5;69.45605;911.1066;;;;
2019/11/03 13:08:20;;;;;;;2.2;1.4;;;;;;;14.57;69.05371;911.0634;;;;
2019/11/03 13:13:16;;;;;;;2.7;1.4;;;;;;;14.72;69.04102;911.0845;;;;
2019/11/03 13:15:44;;;;;;;1.8;1.4;;;;;;;14.72;68.82324;911.1116;;;;
2019/11/03 13:18:25;;;;;;;1.8;1.3;;;;;;;14.74;69.09082;910.9641;;;;
2019/11/03 13:21:05;;;;;;;2.2;1.3;;;;;;;14.8;69.29688;910.9658;;;;
2019/11/03 13:23:25;;;;;;;4.1;1.7;;;;;;;14.82;69.49609;910.9875;;;;
2019/11/03 13:25:49;;;;;;;2.2;1.5;;;;;;;14.86;69.12109;910.9729;;;;
2019/11/03 13:28:16;;;;;;;2.3;1.6;;;;;;;14.88;68.58398;910.8603;;;;
2019/11/03 13:30:46;;;;;;;2.8;1.6;;;;;;;14.85;68.77539;910.813;;;;
2019/11/03 13:33:16;;;;;;;3.6;1.6;;;;;;;14.79;68.40625;910.8192;;;;
2019/11/03 13:35:50;;;;;;;3.7;1.9;;;;;;;14.81;69.04395;910.8303;;;;
2019/11/03 13:38:27;;;;;;;3.8;2.5;;;;;;;14.79;68.5332;910.8112;;;;
2019/11/03 13:40:55;;;;;;;3.5;2.3;;;;;;;14.78;68.56641;910.8983;;;;
2019/11/03 13:43:23;;;;;;;4.8;2.1;;;;;;;14.65;68.21289;910.7983;;;;
2019/11/03 13:45:56;;;;;;;4.1;2.3;;;;;;;14.63;69.88086;910.8047;;;;
2019/11/03 13:48:30;;;;;;;4.9;2.4;;;;;;;14.59;69.40234;910.7742;;;;
2019/11/03 13:51:03;;;;;;;3.6;2.7;;;;;;;14.61;70.24512;910.7037;;;;
2019/11/03 13:53:35;;;;;;;4.9;2.7;;;;;;;14.63;71.58691;910.6414;;;;
2019/11/03 13:56:15;;;;;;;4.8;2.4;;;;;;;14.56;70.25;910.6383;;;;
2019/11/03 13:58:43;;;;;;;3.1;2.3;;;;;;;14.55;69.85645;910.6603;;;;
2019/11/03 14:01:08;;;;;;;4.3;2.4;;;;;;;14.55;70.69922;910.6945;;;;
2019/11/03 14:03:34;;;;;;;5;2.6;;;;;;;14.58;70.40234;910.702;;;;
2019/11/03 14:05:58;;;;;;;4.2;2.3;;;;;;;14.55;70.70898;910.7452;;;;
2019/11/03 14:08:23;;;;;;;3.3;2.4;;;;;;;14.62;70.44238;910.7502;;;;
2019/11/03 14:10:49;;;;;;;2.9;2.2;;;;;;;14.67;70.05957;910.7428;;;;
2019/11/03 14:13:17;;;;;;;3.7;2.4;;;;;;;14.61;70.54492;910.7126;;;;
2019/11/03 14:15:45;;;;;;;2.9;2.1;;;;;;;14.6;70.38184;910.7509;;;;
2019/11/03 14:18:10;;;;;;;4.1;2.7;;;;;;;14.46;71.34961;910.7433;;;;
2019/11/03 14:20:37;;;;;;;5.2;2.6;;;;;;;14.5;71.57617;910.6608;;;;
2019/11/03 14:23:05;;;;;;;3.9;2.6;;;;;;;14.52;71.44043;910.6556;;;;
2019/11/03 14:25:35;;;;;;;3.9;2.6;;;;;;;14.49;72.23145;910.7104;;;;
2019/11/03 14:27:57;;;;;;;4.9;2.5;;;;;;;14.44;71.77441;910.6351;;;;
2019/11/03 14:30:22;;;;;;;3.4;2.2;;;;;;;14.46;72.39844;910.6376;;;;
2019/11/03 14:32:48;;;;;;;4.1;2.7;;;;;;;14.39;71.89258;910.6486;;;;
2019/11/03 14:35:19;;;;;;;3.8;3;;;;;;;14.31;72.69629;910.6108;;;;
2019/11/03 14:37:52;;;;;;;5.4;3;;;;;;;14.29;72.28027;910.5485;;;;
2019/11/03 14:40:18;;;;;;;5.1;3.1;;;;;;;14.31;72.39746;910.4413;;;;
2019/11/03 14:42:47;;;;;;;4;3;;;;;;;14.34;72.71289;910.3502;;;;
2019/11/03 14:45:31;;;;;;;5.5;2.8;;;;;;;14.37;72.5;910.2991;;;;
2019/11/03 14:48:05;;;;;;;4.9;2.6;;;;;;;14.33;72.97559;910.2985;;;;
2019/11/03 14:50:40;;;;;;;6.3;3;;;;;;;14.29;73.67285;910.2805;;;;
2019/11/03 14:53:07;;;;;;;3.9;2.7;;;;;;;14.27;74.12988;910.2808;;;;
2019/11/03 14:55:32;;;;;;;5.5;3.3;;;;;;;14.16;73.7998;910.3148;;;;
2019/11/03 14:58:03;;;;;;;4.7;2.3;;;;;;;14.03;74.29395;910.3038;;;;
2019/11/03 15:00:27;;;;;;;3.7;2.5;;;;;;;13.99;75.00488;910.2921;;;;
2019/11/03 15:02:56;;;;;;;5;2.2;;;;;;;14.01;74.31543;910.2986;;;;
2019/11/03 15:05:20;;;;;;;3.3;2.1;;;;;;;14.04;74.19531;910.3781;;;;
2019/11/03 15:07:52;;;;;;;4.2;2.2;;;;;;;14.04;74.76953;910.3641;;;;
2019/11/03 15:10:17;;;;;;;4.6;2.4;;;;;;;14.04;74.96484;910.4041;;;;
2019/11/03 15:12:41;;;;;;;5.3;2.3;;;;;;;14.01;74.62695;910.3777;;;;
2019/11/03 15:15:13;;;;;;;4.8;3.3;;;;;;;14.01;74.14355;910.3256;;;;
2019/11/03 15:17:49;;;;;;;4.8;3.1;;;;;;;14.03;73.9502;910.3867;;;;
2019/11/03 15:20:16;;;;;;;6.6;3.7;;;;;;;14;74.77441;910.3549;;;;
2019/11/03 15:22:53;;;;;;;5.7;4.2;;;;;;;13.88;75.52344;910.3666;;;;
2019/11/03 15:25:24;;;;;;;7.7;4.1;;;;;;;13.61;76.58203;910.334;;;;
2019/11/03 15:27:52;;;;;;;7.7;3.6;;;;;;;13.44;77.35645;910.2802;;;;
2019/11/03 15:30:19;;;;;;;7.2;3.4;;;;;;;13.42;77.53711;910.2188;;;;
2019/11/03 15:32:47;;;;;;;6.6;3.4;;;;;;;13.49;77.75586;910.3101;;;;
2019/11/03 15:35:19;;;;;;;7.4;5.2;;;;;;;13.3;77.56055;910.3642;;;;
2019/11/03 15:38:31;;;;;;;9.8;6.6;;;;;;;13.17;78.31934;910.4039;;;;
2019/11/03 15:41:14;;;;;;;18.1;11.7;;;;;;;12.95;78.92383;910.439;;;;
2019/11/03 15:43:28;;;;;;;8.4;5.4;;;;;;;12.74;79.96289;910.5286;;;;
2019/11/03 15:45:58;;;;;;;9.7;5.6;;;;;;;12.93;79.33203;910.4951;;;;
2019/11/03 15:48:28;;;;;;;12;7.7;;;;;;;12.97;78.60547;910.3684;;;;
2019/11/03 15:50:54;;;;;;;9.6;6.5;;;;;;;12.66;79.82324;910.493;;;;
2019/11/03 15:53:24;;;;;;;16.6;10.4;;;;;;;12.83;79.8877;910.4869;;;;
2019/11/03 15:55:52;;;;;;;34.2;26.9;;;;;;;12.92;79.38965;910.4849;;;;
2019/11/03 15:58:27;;;;;;;23.6;17.4;;;;;;;13.04;79.04297;910.5045;;;;
2019/11/03 16:00:55;;;;;;;11.5;7.7;;;;;;;13.1;78.7793;910.6497;;;;
2019/11/03 16:03:32;;;;;;;7.8;4.7;;;;;;;13.09;78.90234;910.5352;;;;
2019/11/03 16:05:58;;;;;;;5.2;4;;;;;;;13.02;79.20117;910.4489;;;;
2019/11/03 16:08:33;;;;;;;6.2;4.8;;;;;;;12.91;79.32813;910.3935;;;;
2019/11/03 16:10:57;;;;;;;5.8;4.2;;;;;;;12.97;79.31738;910.356;;;;
2019/11/03 16:13:30;;;;;;;6.2;3.7;;;;;;;12.99;79.19434;910.3837;;;;
2019/11/03 16:15:57;;;;;;;8.2;5;;;;;;;12.96;79.2793;910.3235;;;;
2019/11/03 16:18:27;;;;;;;7.8;6.1;;;;;;;12.73;79.57227;910.2366;;;;
2019/11/03 16:20:56;;;;;;;6.2;4.4;;;;;;;12.68;79.81543;910.2516;;;;
2019/11/03 16:23:24;;;;;;;4.2;3.7;;;;;;;12.53;80.33789;910.1597;;;;
2019/11/03 16:25:52;;;;;;;5.6;4.6;;;;;;;12.54;80.5;910.118;;;;
2019/11/03 16:28:15;;;;;;;5.3;3.1;;;;;;;12.64;80.00391;910.1656;;;;
2019/11/03 16:30:42;;;;;;;5.2;3.4;;;;;;;12.71;79.55664;910.1883;;;;
2019/11/03 16:33:10;;;;;;;4.9;3.9;;;;;;;12.58;79.96875;910.3069;;;;